createdAt,value
2019-05-18T00:00:49.513Z,96.20
2019-05-18T00:03:17.953Z,96.30
2019-05-18T00:05:46.365Z,96.00
2019-05-18T00:08:14.872Z,95.80
2019-05-18T00:10:43.373Z,96.20
2019-05-18T00:13:11.794Z,96.00
2019-05-18T00:15:41.775Z,96.20
2019-05-18T00:18:10.212Z,96.20
2019-05-18T00:20:38.610Z,96.40
2019-05-18T00:23:07.074Z,96.10
2019-05-18T00:25:36.548Z,96.20
2019-05-18T00:28:04.975Z,96.50
2019-05-18T00:30:33.396Z,96.70
2019-05-18T00:33:02.079Z,96.80
2019-05-18T00:35:30.538Z,96.70
2019-05-18T00:37:58.970Z,96.70
2019-05-18T00:40:27.499Z,96.90
2019-05-18T00:42:55.937Z,97.00
2019-05-18T00:45:24.433Z,96.90
2019-05-18T00:47:52.856Z,96.90
2019-05-18T00:50:21.304Z,96.80
2019-05-18T00:52:49.818Z,96.80
2019-05-18T00:55:18.256Z,96.70
2019-05-18T00:57:46.666Z,96.70
2019-05-18T01:00:16.413Z,96.70
2019-05-18T01:02:44.845Z,96.90
2019-05-18T01:05:13.285Z,97.20
2019-05-18T01:07:41.762Z,97.30
2019-05-18T01:10:10.853Z,97.40
2019-05-18T01:12:39.270Z,97.40
2019-05-18T01:15:08.846Z,97.70
2019-05-18T01:17:37.296Z,97.10
2019-05-18T01:20:06.366Z,97.40
2019-05-18T01:22:35.034Z,97.60
2019-05-18T01:25:04.112Z,97.80
2019-05-18T01:27:32.525Z,97.90
2019-05-18T01:30:00.969Z,98.00
2019-05-18T01:32:29.595Z,97.90
2019-05-18T01:34:58.098Z,97.90
2019-05-18T01:37:26.516Z,97.90
2019-05-18T01:39:54.959Z,98.00
2019-05-18T01:42:23.373Z,98.00
2019-05-18T01:44:51.805Z,98.00
2019-05-18T01:47:20.250Z,98.00
2019-05-18T01:49:48.818Z,97.80
2019-05-18T01:52:17.313Z,97.70
2019-05-18T01:54:45.713Z,97.80
2019-05-18T01:57:14.165Z,97.80
2019-05-18T01:59:42.602Z,97.80
2019-05-18T02:02:11.044Z,97.70
2019-05-18T02:04:39.458Z,97.80
2019-05-18T02:07:07.894Z,98.00
2019-05-18T02:09:36.386Z,98.20
2019-05-18T02:12:04.877Z,98.30
2019-05-18T02:14:33.291Z,98.30
2019-05-18T02:17:01.732Z,97.90
2019-05-18T02:19:30.219Z,97.50
2019-05-18T02:21:58.720Z,97.80
2019-05-18T02:24:27.129Z,98.00
2019-05-18T02:26:55.560Z,98.30
2019-05-18T02:29:23.984Z,98.50
2019-05-18T02:31:52.439Z,98.70
2019-05-18T02:34:20.847Z,98.70
2019-05-18T02:36:49.256Z,98.70
2019-05-18T02:39:17.663Z,98.60
2019-05-18T02:41:46.098Z,98.40
2019-05-18T02:44:14.520Z,98.30
2019-05-18T02:46:42.959Z,98.20
2019-05-18T02:49:11.554Z,98.20
2019-05-18T02:51:39.996Z,98.30
2019-05-18T02:54:08.542Z,98.40
2019-05-18T02:56:37.027Z,98.40
2019-05-18T02:59:05.448Z,98.30
2019-05-18T03:01:33.871Z,98.20
2019-05-18T03:04:02.297Z,98.30
2019-05-18T03:06:30.710Z,98.40
2019-05-18T03:08:59.212Z,98.10
2019-05-18T03:11:27.613Z,98.00
2019-05-18T03:13:56.037Z,98.00
2019-05-18T03:16:24.522Z,98.00
2019-05-18T03:19:07.659Z,98.10
2019-05-18T03:21:23.324Z,98.30
2019-05-18T03:23:51.763Z,98.60
2019-05-18T03:26:20.315Z,98.60
2019-05-18T03:28:48.755Z,98.70
2019-05-18T03:31:17.234Z,98.80
2019-05-18T03:33:45.658Z,98.80
2019-05-18T03:36:14.084Z,98.70
2019-05-18T03:38:42.529Z,98.80
2019-05-18T03:41:11.019Z,99.00
2019-05-18T03:43:39.473Z,98.90
2019-05-18T03:46:07.906Z,99.00
2019-05-18T03:48:36.481Z,98.90
2019-05-18T03:51:05.902Z,99.10
2019-05-18T03:53:34.313Z,99.20
2019-05-18T03:56:02.753Z,99.20
2019-05-18T03:58:31.165Z,99.20
2019-05-18T04:00:59.601Z,99.20
2019-05-18T04:03:28.031Z,99.20
2019-05-18T04:05:56.473Z,99.30
2019-05-18T04:08:24.880Z,99.40
2019-05-18T04:10:53.404Z,99.30
2019-05-18T04:13:21.814Z,99.40
2019-05-18T04:15:50.253Z,99.40
2019-05-18T04:18:18.679Z,99.30
2019-05-18T04:20:47.113Z,99.30
2019-05-18T04:23:15.525Z,99.20
2019-05-18T04:25:44.270Z,99.20
2019-05-18T04:28:12.925Z,99.20
2019-05-18T04:30:41.356Z,99.30
2019-05-18T04:33:09.760Z,99.30
2019-05-18T04:35:38.202Z,99.20
2019-05-18T04:38:06.704Z,99.10
2019-05-18T04:40:35.156Z,99.00
2019-05-18T04:43:03.680Z,98.90
2019-05-18T04:45:32.113Z,98.60
2019-05-18T04:48:00.558Z,98.40
2019-05-18T04:50:29.005Z,98.40
2019-05-18T04:52:58.006Z,98.50
2019-05-18T04:55:26.459Z,98.50
2019-05-18T04:57:55.069Z,98.50
2019-05-18T05:00:23.513Z,98.10
2019-05-18T05:02:51.958Z,97.80
2019-05-18T05:05:20.380Z,97.30
2019-05-18T05:07:48.820Z,97.10
2019-05-18T05:10:17.268Z,96.90
2019-05-18T05:12:45.763Z,96.50
2019-05-18T05:15:14.324Z,96.20
2019-05-18T05:17:42.791Z,96.00
2019-05-18T05:20:19.632Z,95.90
2019-05-18T05:22:43.112Z,96.00
2019-05-18T05:25:11.626Z,96.10
2019-05-18T05:27:40.074Z,96.10
2019-05-18T05:30:08.912Z,96.30
2019-05-18T05:32:37.361Z,96.40
2019-05-18T05:35:06.893Z,96.30
2019-05-18T05:37:35.329Z,96.40
2019-05-18T05:40:07.753Z,96.30
2019-05-18T05:42:36.206Z,96.30
2019-05-18T05:45:06.252Z,96.50
2019-05-18T05:47:34.689Z,96.70
2019-05-18T05:50:04.520Z,96.60
2019-05-18T05:52:32.981Z,96.40
2019-05-18T05:55:01.397Z,96.30
2019-05-18T05:57:29.813Z,96.40
2019-05-18T05:59:58.433Z,96.30
2019-05-18T06:02:26.846Z,96.40
2019-05-18T06:04:55.301Z,96.00
2019-05-18T06:07:23.736Z,95.60
2019-05-18T06:09:52.222Z,95.30
2019-05-18T06:12:20.658Z,95.10
2019-05-18T06:14:49.165Z,94.90
2019-05-18T06:17:17.585Z,95.00
2019-05-18T06:19:46.031Z,94.60
2019-05-18T06:22:14.521Z,94.30
2019-05-18T06:24:42.970Z,94.20
2019-05-18T06:27:11.383Z,94.30
2019-05-18T06:29:39.821Z,94.40
2019-05-18T06:32:08.322Z,94.30
2019-05-18T06:34:36.829Z,94.00
2019-05-18T06:37:07.222Z,93.10
2019-05-18T06:39:36.449Z,92.50
2019-05-18T06:42:05.012Z,92.30
2019-05-18T06:44:33.440Z,92.20
2019-05-18T06:47:01.873Z,92.30
2019-05-18T06:49:30.305Z,92.10
2019-05-18T06:51:59.262Z,91.60
2019-05-18T06:54:27.704Z,91.20
2019-05-18T06:56:57.480Z,91.80
2019-05-18T06:59:27.935Z,91.20
2019-05-18T07:01:56.363Z,90.60
2019-05-18T07:04:24.793Z,90.40
2019-05-18T07:06:53.240Z,90.20
2019-05-18T07:09:21.641Z,90.50
2019-05-18T07:11:50.080Z,89.40
2019-05-18T07:14:25.707Z,90.10
2019-05-18T07:16:48.713Z,88.80
2019-05-18T07:19:17.122Z,88.90
2019-05-18T07:21:45.568Z,88.50
2019-05-18T07:24:13.976Z,87.30
2019-05-18T07:26:42.446Z,87.90
2019-05-18T07:29:10.882Z,89.10
2019-05-18T07:31:39.324Z,87.70
2019-05-18T07:34:07.812Z,87.00
2019-05-18T07:36:36.244Z,86.40
2019-05-18T07:39:05.710Z,87.00
2019-05-18T07:41:45.937Z,86.60
2019-05-18T07:44:04.548Z,85.80
2019-05-18T07:46:32.981Z,86.20
2019-05-18T07:49:01.397Z,85.40
2019-05-18T07:51:37.208Z,83.80
2019-05-18T07:53:59.972Z,84.40
2019-05-18T07:56:28.392Z,83.40
2019-05-18T07:58:56.836Z,83.00
2019-05-18T08:01:25.281Z,83.70
2019-05-18T08:03:53.678Z,82.00
2019-05-18T08:06:22.172Z,83.20
2019-05-18T08:08:50.609Z,81.80
2019-05-18T08:11:19.117Z,80.00
2019-05-18T08:13:47.573Z,82.00
2019-05-18T08:16:16.056Z,79.60
2019-05-18T08:18:44.488Z,81.00
2019-05-18T08:21:12.984Z,79.00
2019-05-18T08:23:41.438Z,80.10
2019-05-18T08:26:09.852Z,80.90
2019-05-18T08:28:38.309Z,80.40
2019-05-18T08:31:06.752Z,79.70
2019-05-18T08:33:35.195Z,78.80
2019-05-18T08:36:05.167Z,77.70
2019-05-18T08:38:33.621Z,78.20
2019-05-18T08:41:02.081Z,78.90
2019-05-18T08:43:30.581Z,79.00
2019-05-18T08:45:59.010Z,79.40
2019-05-18T08:48:27.453Z,79.00
2019-05-18T08:50:55.878Z,78.50
2019-05-18T08:53:24.283Z,77.30
2019-05-18T08:55:52.723Z,78.00
2019-05-18T08:58:21.128Z,78.30
2019-05-18T09:00:49.571Z,76.30
2019-05-18T09:03:18.003Z,76.70
2019-05-18T09:05:46.450Z,77.40
2019-05-18T09:08:14.863Z,76.20
2019-05-18T09:10:43.355Z,75.60
2019-05-18T09:13:11.765Z,75.50
2019-05-18T09:15:40.213Z,76.50
2019-05-18T09:18:08.643Z,75.60
2019-05-18T09:20:37.091Z,76.20
2019-05-18T09:23:07.242Z,77.90
2019-05-18T09:25:35.746Z,75.30
2019-05-18T09:28:04.321Z,73.70
2019-05-18T09:30:32.763Z,77.00
2019-05-18T09:33:01.170Z,76.20
2019-05-18T09:35:29.631Z,74.60
2019-05-18T09:37:58.097Z,73.30
2019-05-18T09:40:26.537Z,73.30
2019-05-18T09:42:54.957Z,71.80
2019-05-18T09:45:25.017Z,70.40
2019-05-18T09:47:53.505Z,69.90
2019-05-18T09:50:23.503Z,69.00
2019-05-18T09:52:51.933Z,69.40
2019-05-18T09:55:20.448Z,69.00
2019-05-18T09:57:48.887Z,68.60
2019-05-18T10:00:18.029Z,68.80
2019-05-18T10:02:46.606Z,69.30
2019-05-18T10:05:15.440Z,67.50
2019-05-18T10:07:43.892Z,70.20
2019-05-18T10:10:12.860Z,70.90
2019-05-18T10:12:41.299Z,67.90
2019-05-18T10:15:10.269Z,69.50
2019-05-18T10:17:38.716Z,67.10
2019-05-18T10:20:08.822Z,66.70
2019-05-18T10:22:53.478Z,67.40
2019-05-18T10:25:09.633Z,66.00
2019-05-18T10:27:38.168Z,64.90
2019-05-18T10:30:08.531Z,63.70
2019-05-18T10:32:37.119Z,66.10
2019-05-18T10:35:09.068Z,63.00
2019-05-18T10:37:37.650Z,65.30
2019-05-18T10:40:09.691Z,65.10
2019-05-18T10:42:38.123Z,65.80
2019-05-18T10:45:08.436Z,67.20
2019-05-18T10:47:37.101Z,63.40
2019-05-18T10:50:06.945Z,63.60
2019-05-18T10:52:35.467Z,62.20
2019-05-18T10:55:05.840Z,62.10
2019-05-18T10:57:34.289Z,62.10
2019-05-18T11:00:04.224Z,61.50
2019-05-18T11:02:32.713Z,64.20
2019-05-18T11:05:01.220Z,65.20
2019-05-18T11:07:29.695Z,62.00
2019-05-18T11:09:58.122Z,62.30
2019-05-18T11:12:26.561Z,65.70
2019-05-18T11:14:55.019Z,62.10
2019-05-18T11:17:23.466Z,62.00
2019-05-18T11:19:51.995Z,60.00
2019-05-18T11:22:20.493Z,59.30
2019-05-18T11:24:49.221Z,60.50
2019-05-18T11:27:17.658Z,61.40
2019-05-18T11:29:46.112Z,62.10
2019-05-18T11:32:14.597Z,63.60
2019-05-18T11:34:43.054Z,62.60
2019-05-18T11:37:11.495Z,60.70
2019-05-18T11:39:41.486Z,60.40
2019-05-18T11:42:09.940Z,60.00
2019-05-18T11:44:38.375Z,60.30
2019-05-18T11:47:06.801Z,61.00
2019-05-18T11:49:35.334Z,61.30
2019-05-18T11:52:03.766Z,59.70
2019-05-18T11:54:32.191Z,61.20
2019-05-18T11:57:00.710Z,57.80
2019-05-18T11:59:29.170Z,57.40
2019-05-18T12:02:00.552Z,58.70
2019-05-18T12:04:29.000Z,59.90
2019-05-18T12:06:57.456Z,57.80
2019-05-18T12:09:26.030Z,58.30
2019-05-18T12:11:54.492Z,56.90
2019-05-18T12:14:22.903Z,59.30
2019-05-18T12:16:51.349Z,58.30
2019-05-18T12:19:19.810Z,57.70
2019-05-18T12:21:48.257Z,56.70
2019-05-18T12:24:16.677Z,56.50
2019-05-18T12:26:45.221Z,58.00
2019-05-18T12:29:13.632Z,58.80
2019-05-18T12:31:42.061Z,57.10
2019-05-18T12:34:10.492Z,54.60
2019-05-18T12:36:38.928Z,55.00
2019-05-18T12:39:07.498Z,54.90
2019-05-18T12:41:35.944Z,55.40
2019-05-18T12:44:04.509Z,53.80
2019-05-18T12:46:33.009Z,53.10
2019-05-18T12:49:01.468Z,56.10
2019-05-18T12:51:29.913Z,55.70
2019-05-18T12:53:58.333Z,54.30
2019-05-18T12:56:26.851Z,53.10
2019-05-18T12:58:55.276Z,51.90
2019-05-18T13:01:23.693Z,51.60
2019-05-18T13:03:52.222Z,51.90
2019-05-18T13:06:24.882Z,53.00
2019-05-18T13:08:53.449Z,54.30
2019-05-18T13:11:21.989Z,54.80
2019-05-18T13:13:50.513Z,54.40
2019-05-18T13:16:18.924Z,54.10
2019-05-18T13:18:47.371Z,52.30
2019-05-18T13:21:15.805Z,50.80
2019-05-18T13:23:44.241Z,50.50
2019-05-18T13:26:12.689Z,53.40
2019-05-18T13:28:41.179Z,52.10
2019-05-18T13:31:09.610Z,51.40
2019-05-18T13:33:38.074Z,53.80
2019-05-18T13:36:06.637Z,52.10
2019-05-18T13:38:35.088Z,52.10
2019-05-18T13:41:03.515Z,52.20
2019-05-18T13:43:32.052Z,51.10
2019-05-18T13:46:00.492Z,48.80
2019-05-18T13:48:28.930Z,48.10
2019-05-18T13:50:57.363Z,50.40
2019-05-18T13:53:28.547Z,50.80
2019-05-18T13:55:57.022Z,50.90
2019-05-18T13:58:25.472Z,51.50
2019-05-18T14:00:53.890Z,51.90
2019-05-18T14:03:22.336Z,51.70
2019-05-18T14:05:50.795Z,51.10
2019-05-18T14:08:19.235Z,49.90
2019-05-18T14:10:47.662Z,50.20
2019-05-18T14:13:16.103Z,49.30
2019-05-18T14:15:44.703Z,50.30
2019-05-18T14:18:13.136Z,50.50
2019-05-18T14:20:41.593Z,49.30
2019-05-18T14:23:10.076Z,48.00
2019-05-18T14:25:38.524Z,47.00
2019-05-18T14:28:06.996Z,46.00
2019-05-18T14:30:35.516Z,46.30
2019-05-18T14:33:03.964Z,47.80
2019-05-18T14:35:33.533Z,50.70
2019-05-18T14:38:02.238Z,49.50
2019-05-18T14:40:30.740Z,49.80
2019-05-18T14:42:59.302Z,51.10
2019-05-18T14:45:27.734Z,51.00
2019-05-18T14:47:56.165Z,52.00
2019-05-18T14:50:26.957Z,52.40
2019-05-18T14:52:54.875Z,50.50
2019-05-18T14:55:33.230Z,51.00
2019-05-18T14:57:53.545Z,50.40
2019-05-18T15:00:22.237Z,51.30
2019-05-18T15:02:50.697Z,52.40
2019-05-18T15:05:19.209Z,52.80
2019-05-18T15:07:47.632Z,52.70
2019-05-18T15:10:16.416Z,52.10
2019-05-18T15:12:44.847Z,51.50
2019-05-18T15:15:13.821Z,50.60
2019-05-18T15:17:42.301Z,51.00
2019-05-18T15:20:12.756Z,50.60
2019-05-18T15:22:41.232Z,49.90
2019-05-18T15:25:09.832Z,52.10
2019-05-18T15:27:38.416Z,48.10
2019-05-18T15:30:07.796Z,49.00
2019-05-18T15:32:36.370Z,53.90
2019-05-18T15:35:06.546Z,55.80
2019-05-18T15:37:35.028Z,57.30
2019-05-18T15:40:04.063Z,57.70
2019-05-18T15:42:32.641Z,58.30
2019-05-18T15:45:01.115Z,59.10
2019-05-18T15:47:29.627Z,59.20
2019-05-18T15:49:58.039Z,59.00
2019-05-18T15:52:26.617Z,58.10
2019-05-18T15:54:55.051Z,57.80
2019-05-18T15:57:23.521Z,58.50
2019-05-18T15:59:51.998Z,58.90
2019-05-18T16:02:20.493Z,61.10
2019-05-18T16:04:48.920Z,62.10
2019-05-18T16:07:17.376Z,65.60
2019-05-18T16:09:45.857Z,65.90
2019-05-18T16:12:14.371Z,62.80
2019-05-18T16:14:42.825Z,66.70
2019-05-18T16:17:11.350Z,66.00
2019-05-18T16:19:39.765Z,65.60
2019-05-18T16:22:08.220Z,65.00
2019-05-18T16:24:36.724Z,65.00
2019-05-18T16:27:05.315Z,65.20
2019-05-18T16:29:33.725Z,64.50
2019-05-18T16:32:02.179Z,66.20
2019-05-18T16:34:30.670Z,65.00
2019-05-18T16:37:00.865Z,65.60
2019-05-18T16:39:29.530Z,66.00
2019-05-18T16:41:57.972Z,65.70
2019-05-18T16:44:26.553Z,66.30
2019-05-18T16:46:55.074Z,66.30
2019-05-18T16:49:23.530Z,66.90
2019-05-18T16:51:52.062Z,66.80
2019-05-18T16:54:20.482Z,67.30
2019-05-18T16:56:48.921Z,68.20
2019-05-18T16:59:17.352Z,76.30
2019-05-18T17:01:45.783Z,78.40
2019-05-18T17:04:14.288Z,79.00
2019-05-18T17:06:42.716Z,80.40
2019-05-18T17:09:11.174Z,80.80
2019-05-18T17:11:39.594Z,80.60
2019-05-18T17:14:09.656Z,81.80
2019-05-18T17:16:39.749Z,82.70
2019-05-18T17:19:08.309Z,84.00
2019-05-18T17:21:37.074Z,83.10
2019-05-18T17:24:05.530Z,81.90
2019-05-18T17:26:53.666Z,81.10
2019-05-18T17:29:22.359Z,81.90
2019-05-18T17:31:52.505Z,83.60
2019-05-18T17:34:23.286Z,83.60
2019-05-18T17:36:52.810Z,84.70
2019-05-18T17:39:21.314Z,85.60
2019-05-18T17:41:49.714Z,86.80
2019-05-18T17:44:18.214Z,88.00
2019-05-18T17:46:46.641Z,88.00
2019-05-18T17:49:26.429Z,88.50
2019-05-18T17:51:45.313Z,88.60
2019-05-18T17:54:13.756Z,88.70
2019-05-18T17:56:42.184Z,88.30
2019-05-18T17:59:10.606Z,87.80
2019-05-18T18:01:39.044Z,86.90
2019-05-18T18:04:07.468Z,86.20
2019-05-18T18:06:35.898Z,85.70
2019-05-18T18:09:07.186Z,85.00
2019-05-18T18:11:35.783Z,85.50
2019-05-18T18:14:05.349Z,85.90
2019-05-18T18:16:33.793Z,86.20
2019-05-18T18:19:02.214Z,86.70
2019-05-18T18:21:32.247Z,87.40
2019-05-18T18:24:00.737Z,87.90
2019-05-18T18:26:29.170Z,87.80
2019-05-18T18:28:57.589Z,87.90
2019-05-18T18:31:26.036Z,88.10
2019-05-18T18:33:54.452Z,89.00
2019-05-18T18:36:25.643Z,89.90
2019-05-18T18:38:54.144Z,90.20
2019-05-18T18:41:22.569Z,90.60
2019-05-18T18:43:50.998Z,90.90
2019-05-18T18:46:19.429Z,91.30
2019-05-18T18:48:47.877Z,91.50
2019-05-18T18:51:16.313Z,91.70
2019-05-18T18:53:44.803Z,91.80
2019-05-18T18:56:13.329Z,91.70
2019-05-18T18:58:41.805Z,91.80
2019-05-18T19:01:10.389Z,91.70
2019-05-18T19:03:38.906Z,91.40
2019-05-18T19:06:07.387Z,91.70
2019-05-18T19:08:35.829Z,92.10
2019-05-18T19:11:04.367Z,92.20
2019-05-18T19:13:32.805Z,92.20
2019-05-18T19:16:01.257Z,92.00
2019-05-18T19:18:29.700Z,91.60
2019-05-18T19:20:58.157Z,91.50
2019-05-18T19:23:26.605Z,91.50
2019-05-18T19:25:57.017Z,91.60
2019-05-18T19:28:25.218Z,91.80
2019-05-18T19:30:53.663Z,92.00
2019-05-18T19:33:22.105Z,92.40
2019-05-18T19:35:50.517Z,92.50
2019-05-18T19:38:19.015Z,92.70
2019-05-18T19:40:47.455Z,92.80
2019-05-18T19:43:16.113Z,92.70
2019-05-18T19:45:44.549Z,93.00
2019-05-18T19:48:12.981Z,92.90
2019-05-18T19:50:41.570Z,92.90
2019-05-18T19:53:10.029Z,92.80
2019-05-18T19:55:38.457Z,92.70
2019-05-18T19:58:09.133Z,92.70
2019-05-18T20:00:37.274Z,92.80
2019-05-18T20:03:05.735Z,93.10
2019-05-18T20:05:34.251Z,93.20
2019-05-18T20:08:02.697Z,93.40
2019-05-18T20:10:31.213Z,93.20
2019-05-18T20:12:59.650Z,93.30
2019-05-18T20:15:28.078Z,93.40
2019-05-18T20:17:56.516Z,93.30
2019-05-18T20:20:25.049Z,93.40
2019-05-18T20:22:53.510Z,93.50
2019-05-18T20:25:21.974Z,93.80
2019-05-18T20:27:50.546Z,94.10
2019-05-18T20:30:19.122Z,94.40
2019-05-18T20:32:47.556Z,94.50
2019-05-18T20:35:16.249Z,94.70
2019-05-18T20:37:44.754Z,94.80
2019-05-18T20:40:13.367Z,94.80
2019-05-18T20:42:41.786Z,94.80
2019-05-18T20:45:10.761Z,95.10
2019-05-18T20:47:39.201Z,95.20
2019-05-18T20:50:11.531Z,94.60
2019-05-18T20:52:40.016Z,94.30
2019-05-18T20:55:10.200Z,94.20
2019-05-18T20:57:38.625Z,94.20
2019-05-18T21:00:07.596Z,94.20
2019-05-18T21:02:36.040Z,94.20
2019-05-18T21:05:05.830Z,94.20
2019-05-18T21:07:34.252Z,94.30
2019-05-18T21:10:02.699Z,94.50
2019-05-18T21:12:31.107Z,94.20
2019-05-18T21:14:59.552Z,94.20
2019-05-18T21:17:27.977Z,94.20
2019-05-18T21:19:56.387Z,94.40
2019-05-18T21:22:24.825Z,94.50
2019-05-18T21:24:53.242Z,95.00
2019-05-18T21:27:21.694Z,95.70
2019-05-18T21:29:50.113Z,95.80
2019-05-18T21:32:18.646Z,96.20
2019-05-18T21:34:47.068Z,96.40
2019-05-18T21:37:15.586Z,96.70
2019-05-18T21:39:44.020Z,96.60
2019-05-18T21:42:12.474Z,96.50
2019-05-18T21:44:43.594Z,96.40
2019-05-18T21:47:12.114Z,96.60
2019-05-18T21:49:40.534Z,96.40
2019-05-18T21:52:09.048Z,96.10
2019-05-18T21:54:37.543Z,95.90
2019-05-18T21:57:06.053Z,95.70
2019-05-18T21:59:34.473Z,95.70
2019-05-18T22:02:03.351Z,95.80
2019-05-18T22:04:32.011Z,96.10
2019-05-18T22:07:00.529Z,96.40
2019-05-18T22:09:28.984Z,96.70
2019-05-18T22:11:57.504Z,96.90
2019-05-18T22:14:27.597Z,97.20
2019-05-18T22:16:58.667Z,97.30
2019-05-18T22:19:27.066Z,97.40
2019-05-18T22:21:55.542Z,97.60
2019-05-18T22:24:23.939Z,97.70
2019-05-18T22:26:52.436Z,97.80
2019-05-18T22:29:20.905Z,97.90
2019-05-18T22:31:49.312Z,97.90
2019-05-18T22:34:17.871Z,97.80
2019-05-18T22:36:46.281Z,97.80
2019-05-18T22:39:14.721Z,97.70
2019-05-18T22:41:43.190Z,97.70
2019-05-18T22:44:11.637Z,97.60
2019-05-18T22:46:40.092Z,97.40
2019-05-18T22:49:08.586Z,97.40
2019-05-18T22:51:37.022Z,97.30
2019-05-18T22:54:05.533Z,97.30
2019-05-18T22:56:34.001Z,97.30
2019-05-18T22:59:04.004Z,97.30
2019-05-18T23:01:32.481Z,97.10
2019-05-18T23:04:00.923Z,97.10
2019-05-18T23:06:29.366Z,97.20
2019-05-18T23:08:57.793Z,97.40
2019-05-18T23:11:26.255Z,97.40
2019-05-18T23:13:54.687Z,97.50
2019-05-18T23:16:23.110Z,97.80
2019-05-18T23:18:56.719Z,97.90
2019-05-18T23:21:21.831Z,97.90
2019-05-18T23:23:50.308Z,98.00
2019-05-18T23:26:18.729Z,98.00
2019-05-18T23:28:47.196Z,98.00
2019-05-18T23:31:15.609Z,98.00
2019-05-18T23:33:44.048Z,98.10
2019-05-18T23:36:12.458Z,98.40
2019-05-18T23:38:40.907Z,98.60
2019-05-18T23:41:09.324Z,98.80
2019-05-18T23:43:37.829Z,98.90
2019-05-18T23:46:06.408Z,98.70
2019-05-18T23:48:36.418Z,98.60
2019-05-18T23:51:04.841Z,98.60
2019-05-18T23:53:33.262Z,98.80
2019-05-18T23:56:01.793Z,98.90
2019-05-18T23:58:30.349Z,99.00
